sensor_id;sensor_type;location;lat;lon;timestamp;pressure;altitude;pressure_sealevel;temperature;humidity
66627;BME280;53498;50.422;14.912;2023-02-23T00:01:26;98881.03;;;7.01;96.82
66627;BME280;53498;50.422;14.912;2023-02-23T00:03:56;98873.13;;;6.89;97.46
66627;BME280;53498;50.422;14.912;2023-02-23T00:06:27;98873.06;;;6.83;98.10
66627;BME280;53498;50.422;14.912;2023-02-23T00:08:53;98868.81;;;6.86;98.27
66627;BME280;53498;50.422;14.912;2023-02-23T00:11:20;98872.16;;;6.78;99.17
66627;BME280;53498;50.422;14.912;2023-02-23T00:13:47;98862.72;;;6.83;99.02
66627;BME280;53498;50.422;14.912;2023-02-23T00:16:17;98862.69;;;6.80;99.63
66627;BME280;53498;50.422;14.912;2023-02-23T00:18:47;98863.50;;;6.74;99.88
66627;BME280;53498;50.422;14.912;2023-02-23T00:21:17;98861.84;;;6.82;100.00
66627;BME280;53498;50.422;14.912;2023-02-23T00:23:55;98858.41;;;6.80;100.00
66627;BME280;53498;50.422;14.912;2023-02-23T00:26:24;98857.50;;;6.78;100.00
66627;BME280;53498;50.422;14.912;2023-02-23T00:28:51;98856.59;;;6.75;100.00
66627;BME280;53498;50.422;14.912;2023-02-23T00:31:18;98861.69;;;6.70;100.00
66627;BME280;53498;50.422;14.912;2023-02-23T00:33:47;98860.75;;;6.63;100.00
66627;BME280;53498;50.422;14.912;2023-02-23T00:36:15;98863.47;;;6.71;100.00
66627;BME280;53498;50.422;14.912;2023-02-23T00:38:41;98861.53;;;6.58;100.00
66627;BME280;53498;50.422;14.912;2023-02-23T00:41:09;98858.91;;;6.53;100.00
66627;BME280;53498;50.422;14.912;2023-02-23T00:43:40;98852.03;;;6.54;100.00
66627;BME280;53498;50.422;14.912;2023-02-23T00:46:13;98858.97;;;6.56;100.00
66627;BME280;53498;50.422;14.912;2023-02-23T00:48:40;98857.06;;;6.43;100.00
66627;BME280;53498;50.422;14.912;2023-02-23T00:51:06;98863.19;;;6.51;100.00
66627;BME280;53498;50.422;14.912;2023-02-23T00:53:31;98862.16;;;6.38;100.00
66627;BME280;53498;50.422;14.912;2023-02-23T00:55:57;98857.81;;;6.36;100.00
66627;BME280;53498;50.422;14.912;2023-02-23T00:58:24;98864.72;;;6.35;100.00
66627;BME280;53498;50.422;14.912;2023-02-23T01:00:51;98856.09;;;6.33;100.00
66627;BME280;53498;50.422;14.912;2023-02-23T01:03:17;98856.91;;;6.31;100.00
66627;BME280;53498;50.422;14.912;2023-02-23T01:05:43;98856.19;;;6.39;100.00
66627;BME280;53498;50.422;14.912;2023-02-23T01:08:09;98851.91;;;6.43;100.00
66627;BME280;53498;50.422;14.912;2023-02-23T01:10:39;98849.41;;;6.49;100.00
66627;BME280;53498;50.422;14.912;2023-02-23T01:13:08;98846.81;;;6.51;100.00
66627;BME280;53498;50.422;14.912;2023-02-23T01:15:40;98847.69;;;6.51;100.00
66627;BME280;53498;50.422;14.912;2023-02-23T01:18:07;98845.97;;;6.50;100.00
66627;BME280;53498;50.422;14.912;2023-02-23T01:20:34;98854.66;;;6.55;100.00
66627;BME280;53498;50.422;14.912;2023-02-23T01:23:01;98848.69;;;6.62;100.00
66627;BME280;53498;50.422;14.912;2023-02-23T01:25:27;98851.25;;;6.59;100.00
66627;BME280;53498;50.422;14.912;2023-02-23T01:27:56;98845.09;;;6.51;100.00
66627;BME280;53498;50.422;14.912;2023-02-23T01:30:21;98841.78;;;6.58;100.00
66627;BME280;53498;50.422;14.912;2023-02-23T01:32:47;98845.19;;;6.57;100.00
66627;BME280;53498;50.422;14.912;2023-02-23T01:35:13;98844.28;;;6.52;100.00
66627;BME280;53498;50.422;14.912;2023-02-23T01:37:41;98834.75;;;6.51;100.00
66627;BME280;53498;50.422;14.912;2023-02-23T01:40:14;98847.59;;;6.43;100.00
66627;BME280;53498;50.422;14.912;2023-02-23T01:42:44;98838.06;;;6.38;100.00
66627;BME280;53498;50.422;14.912;2023-02-23T01:45:21;98834.66;;;6.42;100.00
66627;BME280;53498;50.422;14.912;2023-02-23T01:47:49;98842.41;;;6.42;100.00
66627;BME280;53498;50.422;14.912;2023-02-23T01:50:17;98834.72;;;6.48;100.00
66627;BME280;53498;50.422;14.912;2023-02-23T01:52:46;98838.16;;;6.47;100.00
66627;BME280;53498;50.422;14.912;2023-02-23T01:55:14;98840.63;;;6.38;100.00
66627;BME280;53498;50.422;14.912;2023-02-23T01:57:47;98839.69;;;6.31;100.00
66627;BME280;53498;50.422;14.912;2023-02-23T02:00:14;98832.94;;;6.41;100.00
66627;BME280;53498;50.422;14.912;2023-02-23T02:02:44;98836.56;;;6.55;100.00
66627;BME280;53498;50.422;14.912;2023-02-23T02:05:10;98836.50;;;6.51;100.00
66627;BME280;53498;50.422;14.912;2023-02-23T02:07:41;98831.50;;;6.64;100.00
66627;BME280;53498;50.422;14.912;2023-02-23T02:10:10;98829.69;;;6.56;100.00
66627;BME280;53498;50.422;14.912;2023-02-23T02:12:39;98830.47;;;6.52;100.00
66627;BME280;53498;50.422;14.912;2023-02-23T02:15:12;98828.00;;;6.61;100.00
66627;BME280;53498;50.422;14.912;2023-02-23T02:18:02;98828.09;;;6.68;100.00
66627;BME280;53498;50.422;14.912;2023-02-23T02:29:25;98821.13;;;6.61;100.00
66627;BME280;53498;50.422;14.912;2023-02-23T02:32:20;98815.94;;;6.60;100.00
66627;BME280;53498;50.422;14.912;2023-02-23T02:43:20;98812.44;;;6.58;100.00
66627;BME280;53498;50.422;14.912;2023-02-23T02:51:15;98809.06;;;6.63;100.00
66627;BME280;53498;50.422;14.912;2023-02-23T02:54:08;98811.75;;;6.71;100.00
66627;BME280;53498;50.422;14.912;2023-02-23T02:56:39;98817.00;;;6.79;100.00
66627;BME280;53498;50.422;14.912;2023-02-23T02:59:11;98815.19;;;6.68;100.00
66627;BME280;53498;50.422;14.912;2023-02-23T03:01:56;98814.25;;;6.62;100.00
66627;BME280;53498;50.422;14.912;2023-02-23T03:04:40;98812.63;;;6.71;100.00
66627;BME280;53498;50.422;14.912;2023-02-23T03:07:39;98811.75;;;6.71;100.00
66627;BME280;53498;50.422;14.912;2023-02-23T03:10:34;98815.09;;;6.64;100.00
66627;BME280;53498;50.422;14.912;2023-02-23T03:19:58;98814.22;;;6.60;100.00
66627;BME280;53498;50.422;14.912;2023-02-23T03:22:54;98812.53;;;6.62;100.00
66627;BME280;53498;50.422;14.912;2023-02-23T03:25:46;98803.84;;;6.57;100.00
66627;BME280;53498;50.422;14.912;2023-02-23T03:28:49;98810.75;;;6.58;100.00
66627;BME280;53498;50.422;14.912;2023-02-23T03:31:46;98808.94;;;6.51;100.00
66627;BME280;53498;50.422;14.912;2023-02-23T03:34:42;98820.28;;;6.64;100.00
66627;BME280;53498;50.422;14.912;2023-02-23T03:37:34;98809.97;;;6.65;100.00
66627;BME280;53498;50.422;14.912;2023-02-23T03:40:25;98812.53;;;6.62;100.00
66627;BME280;53498;50.422;14.912;2023-02-23T03:43:13;98809.94;;;6.64;100.00
66627;BME280;53498;50.422;14.912;2023-02-23T03:46:00;98814.13;;;6.54;100.00
66627;BME280;53498;50.422;14.912;2023-02-23T03:48:47;98824.59;;;6.63;100.00
66627;BME280;53498;50.422;14.912;2023-02-23T03:51:35;98816.72;;;6.54;100.00
66627;BME280;53498;50.422;14.912;2023-02-23T03:54:31;98816.75;;;6.57;100.00
66627;BME280;53498;50.422;14.912;2023-02-23T03:57:19;98822.91;;;6.65;100.00
66627;BME280;53498;50.422;14.912;2023-02-23T04:00:07;98817.50;;;6.47;100.00
66627;BME280;53498;50.422;14.912;2023-02-23T04:02:53;98824.47;;;6.54;100.00
66627;BME280;53498;50.422;14.912;2023-02-23T04:05:40;98820.19;;;6.56;100.00
66627;BME280;53498;50.422;14.912;2023-02-23T04:08:31;98829.53;;;6.45;100.00
66627;BME280;53498;50.422;14.912;2023-02-23T04:11:28;98820.88;;;6.40;100.00
66627;BME280;53498;50.422;14.912;2023-02-23T04:14:25;98826.06;;;6.43;100.00
66627;BME280;53498;50.422;14.912;2023-02-23T04:16:54;98829.53;;;6.45;100.00
66627;BME280;53498;50.422;14.912;2023-02-23T04:19:20;98827.88;;;6.52;100.00
66627;BME280;53498;50.422;14.912;2023-02-23T04:21:46;98836.56;;;6.55;100.00
66627;BME280;53498;50.422;14.912;2023-02-23T04:24:11;98828.78;;;6.52;100.00
66627;BME280;53498;50.422;14.912;2023-02-23T04:26:37;98832.28;;;6.59;100.00
66627;BME280;53498;50.422;14.912;2023-02-23T04:29:03;98827.06;;;6.54;100.00
66627;BME280;53498;50.422;14.912;2023-02-23T04:31:28;98828.81;;;6.55;100.00
66627;BME280;53498;50.422;14.912;2023-02-23T04:33:54;98839.91;;;6.46;100.00
66627;BME280;53498;50.422;14.912;2023-02-23T04:36:19;98839.09;;;6.52;100.00
66627;BME280;53498;50.422;14.912;2023-02-23T04:38:45;98834.75;;;6.51;100.00
66627;BME280;53498;50.422;14.912;2023-02-23T04:41:11;98839.91;;;6.48;100.00
66627;BME280;53498;50.422;14.912;2023-02-23T04:43:37;98833.91;;;6.49;100.00
66627;BME280;53498;50.422;14.912;2023-02-23T04:46:02;98833.00;;;6.48;100.00
66627;BME280;53498;50.422;14.912;2023-02-23T04:48:28;98827.88;;;6.50;100.00
66627;BME280;53498;50.422;14.912;2023-02-23T04:50:54;98838.22;;;6.52;100.00
66627;BME280;53498;50.422;14.912;2023-02-23T04:53:20;98832.25;;;6.57;100.00
66627;BME280;53498;50.422;14.912;2023-02-23T04:55:45;98833.22;;;6.65;100.00
66627;BME280;53498;50.422;14.912;2023-02-23T04:58:11;98832.25;;;6.57;100.00
66627;BME280;53498;50.422;14.912;2023-02-23T05:00:38;98831.34;;;6.54;100.00
66627;BME280;53498;50.422;14.912;2023-02-23T05:03:05;98830.53;;;6.56;100.00
66627;BME280;53498;50.422;14.912;2023-02-23T05:05:30;98831.41;;;6.57;100.00
66627;BME280;53498;50.422;14.912;2023-02-23T05:07:56;98829.81;;;6.69;100.00
66627;BME280;53498;50.422;14.912;2023-02-23T05:10:22;98828.91;;;6.64;100.00
66627;BME280;53498;50.422;14.912;2023-02-23T05:12:48;98832.41;;;6.68;100.00
66627;BME280;53498;50.422;14.912;2023-02-23T05:15:13;98827.31;;;6.76;100.00
66627;BME280;53498;50.422;14.912;2023-02-23T05:17:39;98824.72;;;6.74;100.00
66627;BME280;53498;50.422;14.912;2023-02-23T05:20:09;98831.63;;;6.77;100.00
66627;BME280;53498;50.422;14.912;2023-02-23T05:22:36;98829.97;;;6.82;100.00
66627;BME280;53498;50.422;14.912;2023-02-23T05:25:01;98832.59;;;6.83;100.00
66627;BME280;53498;50.422;14.912;2023-02-23T05:27:29;98825.63;;;6.78;100.00
66627;BME280;53498;50.422;14.912;2023-02-23T05:29:54;98827.38;;;6.82;100.00
66627;BME280;53498;50.422;14.912;2023-02-23T05:32:20;98825.69;;;6.85;100.00
66627;BME280;53498;50.422;14.912;2023-02-23T05:34:46;98831.66;;;6.80;100.00
66627;BME280;53498;50.422;14.912;2023-02-23T05:37:11;98829.13;;;6.84;100.00
66627;BME280;53498;50.422;14.912;2023-02-23T05:39:37;98826.38;;;6.70;100.00
66627;BME280;53498;50.422;14.912;2023-02-23T05:42:03;98829.06;;;6.78;100.00
66627;BME280;53498;50.422;14.912;2023-02-23T05:44:28;98829.97;;;6.82;100.00
66627;BME280;53498;50.422;14.912;2023-02-23T05:46:54;98838.66;;;6.87;100.00
66627;BME280;53498;50.422;14.912;2023-02-23T05:49:19;98837.63;;;6.72;100.00
66627;BME280;53498;50.422;14.912;2023-02-23T05:51:46;98836.81;;;6.80;100.00
66627;BME280;53498;50.422;14.912;2023-02-23T05:54:11;98841.88;;;6.70;100.00
66627;BME280;53498;50.422;14.912;2023-02-23T05:56:39;98835.88;;;6.73;100.00
66627;BME280;53498;50.422;14.912;2023-02-23T05:59:05;98838.47;;;6.71;100.00
66627;BME280;53498;50.422;14.912;2023-02-23T06:01:30;98839.25;;;6.66;100.00
66627;BME280;53498;50.422;14.912;2023-02-23T06:03:56;98837.53;;;6.66;100.00
66627;BME280;53498;50.422;14.912;2023-02-23T06:06:22;98838.41;;;6.65;100.00
66627;BME280;53498;50.422;14.912;2023-02-23T06:08:48;98841.88;;;6.70;100.00
66627;BME280;53498;50.422;14.912;2023-02-23T06:11:14;98841.00;;;6.67;100.00
66627;BME280;53498;50.422;14.912;2023-02-23T06:13:39;98845.50;;;6.83;100.00
66627;BME280;53498;50.422;14.912;2023-02-23T06:16:06;98845.53;;;6.86;100.00
66627;BME280;53498;50.422;14.912;2023-02-23T06:18:32;98849.81;;;6.84;100.00
66627;BME280;53498;50.422;14.912;2023-02-23T06:21:02;98844.69;;;6.89;100.00
66627;BME280;53498;50.422;14.912;2023-02-23T06:23:28;98845.63;;;6.95;100.00
66627;BME280;53498;50.422;14.912;2023-02-23T06:25:55;98849.91;;;6.92;100.00
66627;BME280;53498;50.422;14.912;2023-02-23T06:28:20;98843.03;;;6.94;100.00
66627;BME280;53498;50.422;14.912;2023-02-23T06:30:46;98852.47;;;6.92;100.00
66627;BME280;53498;50.422;14.912;2023-02-23T06:33:12;98861.00;;;6.82;100.00
66627;BME280;53498;50.422;14.912;2023-02-23T06:35:38;98848.97;;;6.84;100.00
66627;BME280;53498;50.422;14.912;2023-02-23T06:38:05;98857.56;;;6.86;100.00
66627;BME280;53498;50.422;14.912;2023-02-23T06:40:32;98861.84;;;6.81;100.00
66627;BME280;53498;50.422;14.912;2023-02-23T06:42:57;98868.81;;;6.86;100.00
66627;BME280;53498;50.422;14.912;2023-02-23T06:45:24;98861.03;;;6.83;100.00
66627;BME280;53498;50.422;14.912;2023-02-23T06:47:58;98870.47;;;6.83;100.00
66627;BME280;53498;50.422;14.912;2023-02-23T06:50:24;98866.13;;;6.79;100.00
66627;BME280;53498;50.422;14.912;2023-02-23T06:52:49;98870.31;;;6.70;100.00
66627;BME280;53498;50.422;14.912;2023-02-23T06:55:16;98863.56;;;6.80;100.00
66627;BME280;53498;50.422;14.912;2023-02-23T06:57:41;98872.31;;;6.91;100.00
66627;BME280;53498;50.422;14.912;2023-02-23T07:00:10;98871.47;;;6.94;99.66
66627;BME280;53498;50.422;14.912;2023-02-23T07:02:40;98869.72;;;6.90;98.87
66627;BME280;53498;50.422;14.912;2023-02-23T07:05:06;98868.88;;;6.95;98.47
66627;BME280;53498;50.422;14.912;2023-02-23T07:07:32;98872.41;;;7.01;99.25
66627;BME280;53498;50.422;14.912;2023-02-23T07:09:58;98864.50;;;6.88;99.08
66627;BME280;53498;50.422;14.912;2023-02-23T07:12:23;98873.06;;;6.81;99.49
66627;BME280;53498;50.422;14.912;2023-02-23T07:14:49;98880.78;;;6.78;98.76
66627;BME280;53498;50.422;14.912;2023-02-23T07:17:14;98871.44;;;6.91;98.04
66627;BME280;53498;50.422;14.912;2023-02-23T07:19:42;98871.56;;;7.03;97.08
66627;BME280;53498;50.422;14.912;2023-02-23T07:22:08;98877.63;;;7.02;97.58
66627;BME280;53498;50.422;14.912;2023-02-23T07:24:34;98881.94;;;7.03;97.61
66627;BME280;53498;50.422;14.912;2023-02-23T07:26:59;98872.53;;;7.14;97.29
66627;BME280;53498;50.422;14.912;2023-02-23T07:29:25;98875.13;;;7.14;96.19
66627;BME280;53498;50.422;14.912;2023-02-23T07:31:52;98876.94;;;7.23;95.74
66627;BME280;53498;50.422;14.912;2023-02-23T07:34:18;98874.44;;;7.29;94.98
66627;BME280;53498;50.422;14.912;2023-02-23T07:36:44;98871.56;;;7.03;94.37
66627;BME280;53498;50.422;14.912;2023-02-23T07:39:10;98875.94;;;7.06;95.18
66627;BME280;53498;50.422;14.912;2023-02-23T07:41:35;98870.81;;;7.13;94.44
66627;BME280;53498;50.422;14.912;2023-02-23T07:44:01;98873.44;;;7.16;94.63
66627;BME280;53498;50.422;14.912;2023-02-23T07:46:26;98866.72;;;7.35;94.31
66627;BME280;53498;50.422;14.912;2023-02-23T07:48:53;98867.50;;;7.27;93.80
66627;BME280;53498;50.422;14.912;2023-02-23T07:51:18;98862.25;;;7.21;93.23
66627;BME280;53498;50.422;14.912;2023-02-23T07:53:44;98870.88;;;7.19;92.94
66627;BME280;53498;50.422;14.912;2023-02-23T07:56:11;98869.25;;;7.28;92.70
66627;BME280;53498;50.422;14.912;2023-02-23T07:58:39;98862.47;;;7.40;92.44
66627;BME280;53498;50.422;14.912;2023-02-23T08:01:05;98869.38;;;7.41;91.61
66627;BME280;53498;50.422;14.912;2023-02-23T08:03:31;98860.78;;;7.44;92.51
66627;BME280;53498;50.422;14.912;2023-02-23T08:05:57;98862.41;;;7.36;92.08
66627;BME280;53498;50.422;14.912;2023-02-23T08:08:23;98868.41;;;7.32;92.29
66627;BME280;53498;50.422;14.912;2023-02-23T08:10:49;98868.50;;;7.41;91.55
66627;BME280;53498;50.422;14.912;2023-02-23T08:13:15;98865.78;;;7.26;91.45
66627;BME280;53498;50.422;14.912;2023-02-23T08:15:42;98870.22;;;7.37;92.92
66627;BME280;53498;50.422;14.912;2023-02-23T08:18:08;98866.84;;;7.48;91.28
66627;BME280;53498;50.422;14.912;2023-02-23T08:20:35;98868.59;;;7.50;90.43
66627;BME280;53498;50.422;14.912;2023-02-23T08:23:01;98869.28;;;7.32;91.16
66627;BME280;53498;50.422;14.912;2023-02-23T08:25:26;98865.00;;;7.34;91.21
66627;BME280;53498;50.422;14.912;2023-02-23T08:27:53;98859.91;;;7.45;91.33
66627;BME280;53498;50.422;14.912;2023-02-23T08:30:22;98859.09;;;7.51;91.10
66627;BME280;53498;50.422;14.912;2023-02-23T08:32:49;98866.94;;;7.60;89.98
66627;BME280;53498;50.422;14.912;2023-02-23T08:35:17;98871.25;;;7.56;90.13
66627;BME280;53498;50.422;14.912;2023-02-23T08:37:44;98870.41;;;7.60;89.78
66627;BME280;53498;50.422;14.912;2023-02-23T08:40:11;98867.94;;;7.71;88.46
66627;BME280;53498;50.422;14.912;2023-02-23T08:42:43;98861.00;;;7.70;89.01
66627;BME280;53498;50.422;14.912;2023-02-23T08:45:10;98857.66;;;7.83;88.46
66627;BME280;53498;50.422;14.912;2023-02-23T08:47:36;98866.34;;;7.90;87.89
66627;BME280;53498;50.422;14.912;2023-02-23T08:50:03;98863.75;;;7.92;87.35
66627;BME280;53498;50.422;14.912;2023-02-23T08:52:30;98850.75;;;7.85;87.30
66627;BME280;53498;50.422;14.912;2023-02-23T08:54:55;98855.19;;;8.00;87.10
66627;BME280;53498;50.422;14.912;2023-02-23T08:57:22;98860.44;;;8.09;87.98
66627;BME280;53498;50.422;14.912;2023-02-23T08:59:47;98856.22;;;8.28;86.07
66627;BME280;53498;50.422;14.912;2023-02-23T09:02:13;98864.78;;;8.15;85.60
66627;BME280;53498;50.422;14.912;2023-02-23T09:04:42;98857.06;;;8.26;85.29
66627;BME280;53498;50.422;14.912;2023-02-23T09:07:13;98848.34;;;8.15;85.76
66627;BME280;53498;50.422;14.912;2023-02-23T09:09:39;98857.13;;;8.35;86.51
66627;BME280;53498;50.422;14.912;2023-02-23T09:12:05;98856.22;;;8.25;85.74
66627;BME280;53498;50.422;14.912;2023-02-23T09:14:31;98861.34;;;8.16;85.91
66627;BME280;53498;50.422;14.912;2023-02-23T09:16:57;98862.22;;;8.23;86.05
66627;BME280;53498;50.422;14.912;2023-02-23T09:19:22;98852.09;;;8.56;85.87
66627;BME280;53498;50.422;14.912;2023-02-23T09:21:49;98861.59;;;8.57;86.27
66627;BME280;53498;50.422;14.912;2023-02-23T09:24:14;98856.47;;;8.68;85.78
66627;BME280;53498;50.422;14.912;2023-02-23T09:26:43;98859.06;;;8.73;84.27
66627;BME280;53498;50.422;14.912;2023-02-23T09:29:09;98850.38;;;8.60;84.80
66627;BME280;53498;50.422;14.912;2023-02-23T09:31:34;98861.69;;;8.77;83.85
66627;BME280;53498;50.422;14.912;2023-02-23T09:34:00;98853.97;;;8.97;83.62
66627;BME280;53498;50.422;14.912;2023-02-23T09:36:27;98864.28;;;8.77;83.44
66627;BME280;53498;50.422;14.912;2023-02-23T09:38:54;98853.91;;;8.85;83.17
66627;BME280;53498;50.422;14.912;2023-02-23T09:46:33;98858.34;;;9.12;81.86
66627;BME280;53498;50.422;14.912;2023-02-23T09:49:03;98854.84;;;8.96;83.03
66627;BME280;53498;50.422;14.912;2023-02-23T09:51:36;98846.22;;;9.19;82.97
66627;BME280;53498;50.422;14.912;2023-02-23T09:54:04;98850.53;;;9.11;82.26
66627;BME280;53498;50.422;14.912;2023-02-23T09:59:10;98847.13;;;9.39;81.30
66627;BME280;53498;50.422;14.912;2023-02-23T10:07:19;98842.81;;;9.57;80.51
66627;BME280;53498;50.422;14.912;2023-02-23T10:12:27;98840.22;;;9.81;78.97
66627;BME280;53498;50.422;14.912;2023-02-23T10:15:15;98835.88;;;9.89;79.26
66627;BME280;53498;50.422;14.912;2023-02-23T10:17:59;98838.47;;;9.74;78.08
66627;BME280;53498;50.422;14.912;2023-02-23T10:23:07;98838.47;;;9.76;78.67
66627;BME280;53498;50.422;14.912;2023-02-23T10:25:40;98825.50;;;9.60;78.05
66627;BME280;53498;50.422;14.912;2023-02-23T10:28:17;98837.59;;;9.46;78.80
66627;BME280;53498;50.422;14.912;2023-02-23T10:30:44;98829.81;;;9.67;78.42
66627;BME280;53498;50.422;14.912;2023-02-23T10:33:14;98828.06;;;9.71;78.18
66627;BME280;53498;50.422;14.912;2023-02-23T10:35:43;98828.06;;;9.71;77.48
66627;BME280;53498;50.422;14.912;2023-02-23T10:38:14;98823.78;;;9.75;77.64
66627;BME280;53498;50.422;14.912;2023-02-23T10:40:42;98814.25;;;9.78;76.84
66627;BME280;53498;50.422;14.912;2023-02-23T10:43:10;98814.22;;;9.90;77.01
66627;BME280;53498;50.422;14.912;2023-02-23T10:45:43;98820.28;;;9.80;77.04
66627;BME280;53498;50.422;14.912;2023-02-23T10:48:17;98820.28;;;9.97;76.89
66627;BME280;53498;50.422;14.912;2023-02-23T10:50:44;98819.44;;;9.90;76.92
66627;BME280;53498;50.422;14.912;2023-02-23T10:53:31;98809.91;;;9.91;77.02
66627;BME280;53498;50.422;14.912;2023-02-23T10:56:04;98814.22;;;9.67;77.22
66627;BME280;53498;50.422;14.912;2023-02-23T10:58:40;98806.44;;;9.83;78.15
66627;BME280;53498;50.422;14.912;2023-02-23T11:01:08;98812.44;;;10.08;76.93
66627;BME280;53498;50.422;14.912;2023-02-23T11:03:45;98800.34;;;9.98;76.51
66627;BME280;53498;50.422;14.912;2023-02-23T11:06:35;98802.88;;;10.33;76.12
66627;BME280;53498;50.422;14.912;2023-02-23T11:12:16;98802.84;;;10.42;74.11
66627;BME280;53498;50.422;14.912;2023-02-23T11:14:47;98788.91;;;10.61;73.12
66627;BME280;53498;50.422;14.912;2023-02-23T11:17:32;98793.28;;;10.52;74.91
66627;BME280;53498;50.422;14.912;2023-02-23T11:20:02;98791.59;;;10.41;74.85
66627;BME280;53498;50.422;14.912;2023-02-23T11:22:31;98788.13;;;10.42;74.09
66627;BME280;53498;50.422;14.912;2023-02-23T11:24:59;98788.03;;;10.61;74.94
66627;BME280;53498;50.422;14.912;2023-02-23T11:27:26;98779.34;;;10.70;73.98
66627;BME280;53498;50.422;14.912;2023-02-23T11:29:55;98775.84;;;10.75;74.15
66627;BME280;53498;50.422;14.912;2023-02-23T11:32:26;98775.81;;;10.77;74.14
66627;BME280;53498;50.422;14.912;2023-02-23T11:35:33;98773.34;;;10.52;74.51
66627;BME280;53498;50.422;14.912;2023-02-23T11:37:58;98765.41;;;10.77;74.25
66627;BME280;53498;50.422;14.912;2023-02-23T11:40:29;98759.25;;;10.95;73.18
66627;BME280;53498;50.422;14.912;2023-02-23T11:43:06;98766.38;;;10.57;73.24
66627;BME280;53498;50.422;14.912;2023-02-23T11:45:37;98760.28;;;10.66;73.78
66627;BME280;53498;50.422;14.912;2023-02-23T11:48:03;98750.69;;;10.74;73.28
66627;BME280;53498;50.422;14.912;2023-02-23T11:50:32;98747.00;;;11.03;72.97
66627;BME280;53498;50.422;14.912;2023-02-23T11:53:12;98747.72;;;11.26;72.62
66627;BME280;53498;50.422;14.912;2023-02-23T11:55:46;98749.44;;;11.27;72.43
66627;BME280;53498;50.422;14.912;2023-02-23T12:00:58;98739.16;;;11.12;72.59
66627;BME280;53498;50.422;14.912;2023-02-23T12:03:26;98731.16;;;11.33;72.58
66627;BME280;53498;50.422;14.912;2023-02-23T12:05:54;98733.84;;;11.24;73.13
66627;BME280;53498;50.422;14.912;2023-02-23T12:08:38;98736.75;;;10.83;74.88
66627;BME280;53498;50.422;14.912;2023-02-23T12:11:11;98737.69;;;10.71;75.64
66627;BME280;53498;50.422;14.912;2023-02-23T12:13:40;98726.38;;;10.81;74.68
66627;BME280;53498;50.422;14.912;2023-02-23T12:16:35;98732.47;;;10.71;74.88
66627;BME280;53498;50.422;14.912;2023-02-23T12:21:47;98731.34;;;11.09;75.17
66627;BME280;53498;50.422;14.912;2023-02-23T12:24:27;98726.22;;;10.97;75.32
66627;BME280;53498;50.422;14.912;2023-02-23T12:27:20;98726.38;;;10.81;76.53
66627;BME280;53498;50.422;14.912;2023-02-23T12:30:02;98724.56;;;10.89;74.50
66627;BME280;53498;50.422;14.912;2023-02-23T12:32:45;98719.59;;;10.54;76.09
66627;BME280;53498;50.422;14.912;2023-02-23T12:35:24;98719.38;;;10.86;75.56
66627;BME280;53498;50.422;14.912;2023-02-23T12:37:59;98716.69;;;10.99;75.76
66627;BME280;53498;50.422;14.912;2023-02-23T12:40:34;98721.03;;;10.97;75.22
66627;BME280;53498;50.422;14.912;2023-02-23T12:43:17;98716.72;;;10.96;75.35
66627;BME280;53498;50.422;14.912;2023-02-23T12:46:09;98714.84;;;11.16;75.32
66627;BME280;53498;50.422;14.912;2023-02-23T12:51:35;98712.88;;;11.40;74.22
66627;BME280;53498;50.422;14.912;2023-02-23T12:54:04;98706.16;;;11.14;73.78
66627;BME280;53498;50.422;14.912;2023-02-23T12:56:50;98717.38;;;11.21;73.47
66627;BME280;53498;50.422;14.912;2023-02-23T13:00:21;98700.22;;;10.97;75.27
66627;BME280;53498;50.422;14.912;2023-02-23T13:05:38;98694.13;;;11.01;74.83
66627;BME280;53498;50.422;14.912;2023-02-23T13:08:27;98691.56;;;10.95;75.54
66627;BME280;53498;50.422;14.912;2023-02-23T13:11:04;98698.66;;;10.71;76.89
66627;BME280;53498;50.422;14.912;2023-02-23T13:16:34;98694.09;;;11.04;77.31
66627;BME280;53498;50.422;14.912;2023-02-23T13:19:21;98695.88;;;10.99;77.69
66627;BME280;53498;50.422;14.912;2023-02-23T13:21:53;98682.09;;;10.83;78.82
66627;BME280;53498;50.422;14.912;2023-02-23T13:24:25;98686.41;;;10.87;79.07
66627;BME280;53498;50.422;14.912;2023-02-23T13:26:54;98685.41;;;11.05;78.53
66627;BME280;53498;50.422;14.912;2023-02-23T13:29:39;98678.50;;;10.99;77.50
66627;BME280;53498;50.422;14.912;2023-02-23T13:32:15;98677.75;;;10.86;77.60
66627;BME280;53498;50.422;14.912;2023-02-23T13:37:13;98673.34;;;10.95;77.47
66627;BME280;53498;50.422;14.912;2023-02-23T13:42:43;98676.06;;;10.82;77.28
66627;BME280;53498;50.422;14.912;2023-02-23T13:47:55;98679.56;;;10.74;78.17
66627;BME280;53498;50.422;14.912;2023-02-23T13:52:52;98673.56;;;10.67;78.58
66627;BME280;53498;50.422;14.912;2023-02-23T13:58:05;98684.00;;;10.61;79.05
66627;BME280;53498;50.422;14.912;2023-02-23T14:00:35;98680.56;;;10.57;79.50
66627;BME280;53498;50.422;14.912;2023-02-23T14:03:05;98673.59;;;10.61;79.34
66627;BME280;53498;50.422;14.912;2023-02-23T14:05:41;98670.03;;;10.71;78.51
66627;BME280;53498;50.422;14.912;2023-02-23T14:08:20;98672.69;;;10.67;78.61
66627;BME280;53498;50.422;14.912;2023-02-23T14:10:47;98677.06;;;10.58;79.33
66627;BME280;53498;50.422;14.912;2023-02-23T14:15:46;98678.88;;;10.49;79.83
66627;BME280;53498;50.422;14.912;2023-02-23T14:20:51;98675.44;;;10.44;80.17
66627;BME280;53498;50.422;14.912;2023-02-23T14:25:51;98671.00;;;10.58;79.74
66627;BME280;53498;50.422;14.912;2023-02-23T14:28:32;98673.59;;;10.61;79.22
66627;BME280;53498;50.422;14.912;2023-02-23T14:31:15;98666.84;;;10.32;80.67
66627;BME280;53498;50.422;14.912;2023-02-23T14:36:33;98675.44;;;10.47;80.68
66627;BME280;53498;50.422;14.912;2023-02-23T14:39:03;98672.88;;;10.36;81.05
66627;BME280;53498;50.422;14.912;2023-02-23T14:41:59;98674.63;;;10.35;81.21
66627;BME280;53498;50.422;14.912;2023-02-23T14:44:36;98669.47;;;10.26;81.65